sensor_id;sensor_type;location;lat;lon;timestamp;pressure;altitude;pressure_sealevel;temperature;humidity
51259;BME280;37327;54.254;18.504;2023-01-29T00:00:33;101465.04;;;-1.34;96.83
51259;BME280;37327;54.254;18.504;2023-01-29T00:03:42;101473.75;;;-1.32;96.98
51259;BME280;37327;54.254;18.504;2023-01-29T00:06:49;101483.44;;;-1.31;96.96
51259;BME280;37327;54.254;18.504;2023-01-29T00:09:55;101496.50;;;-1.28;97.08
51259;BME280;37327;54.254;18.504;2023-01-29T00:13:03;101497.27;;;-1.26;97.12
51259;BME280;37327;54.254;18.504;2023-01-29T00:16:11;101497.97;;;-1.22;97.24
51259;BME280;37327;54.254;18.504;2023-01-29T00:19:18;101498.73;;;-1.20;97.37
51259;BME280;37327;54.254;18.504;2023-01-29T00:22:25;101505.59;;;-1.16;97.46
51259;BME280;37327;54.254;18.504;2023-01-29T00:25:32;101502.68;;;-1.11;97.47
51259;BME280;37327;54.254;18.504;2023-01-29T00:28:39;101507.84;;;-1.08;97.48
51259;BME280;37327;54.254;18.504;2023-01-29T00:31:47;101504.15;;;-1.06;97.55
51259;BME280;37327;54.254;18.504;2023-01-29T00:34:54;101501.35;;;-1.03;97.67
51259;BME280;37327;54.254;18.504;2023-01-29T00:38:01;101509.22;;;-1.01;97.91
51259;BME280;37327;54.254;18.504;2023-01-29T00:41:09;101515.30;;;-0.99;97.95
51259;BME280;37327;54.254;18.504;2023-01-29T00:44:28;101507.16;;;-0.96;97.98
51259;BME280;37327;54.254;18.504;2023-01-29T00:47:47;101506.23;;;-0.95;98.13
51259;BME280;37327;54.254;18.504;2023-01-29T00:50:55;101506.16;;;-0.93;98.42
51259;BME280;37327;54.254;18.504;2023-01-29T00:54:02;101513.08;;;-0.91;98.60
51259;BME280;37327;54.254;18.504;2023-01-29T00:57:12;101522.65;;;-0.88;98.74
51259;BME280;37327;54.254;18.504;2023-01-29T01:00:19;101524.38;;;-0.87;99.21
51259;BME280;37327;54.254;18.504;2023-01-29T01:03:27;101520.70;;;-0.85;99.47
51259;BME280;37327;54.254;18.504;2023-01-29T01:06:36;101522.42;;;-0.84;99.69
51259;BME280;37327;54.254;18.504;2023-01-29T01:09:44;101524.89;;;-0.81;99.82
51259;BME280;37327;54.254;18.504;2023-01-29T01:13:05;101518.82;;;-0.83;100.00
51259;BME280;37327;54.254;18.504;2023-01-29T01:16:14;101519.66;;;-0.82;100.00
51259;BME280;37327;54.254;18.504;2023-01-29T01:19:22;101520.54;;;-0.82;100.00
51259;BME280;37327;54.254;18.504;2023-01-29T01:22:28;101531.15;;;-0.82;100.00
51259;BME280;37327;54.254;18.504;2023-01-29T01:25:37;101510.86;;;-0.83;100.00
51259;BME280;37327;54.254;18.504;2023-01-29T01:28:44;101516.17;;;-0.83;100.00
51259;BME280;37327;54.254;18.504;2023-01-29T01:31:53;101513.59;;;-0.84;100.00
51259;BME280;37327;54.254;18.504;2023-01-29T01:35:00;101510.09;;;-0.85;100.00
51259;BME280;37327;54.254;18.504;2023-01-29T01:38:07;101495.14;;;-0.86;100.00
51259;BME280;37327;54.254;18.504;2023-01-29T01:41:19;101500.45;;;-0.86;100.00
51259;BME280;37327;54.254;18.504;2023-01-29T01:47:50;101481.27;;;-0.91;100.00
51259;BME280;37327;54.254;18.504;2023-01-29T01:51:01;101469.05;;;-0.93;100.00
51259;BME280;37327;54.254;18.504;2023-01-29T01:54:12;101463.63;;;-0.92;100.00
51259;BME280;37327;54.254;18.504;2023-01-29T01:57:22;101466.28;;;-0.92;100.00
51259;BME280;37327;54.254;18.504;2023-01-29T02:00:33;101464.59;;;-0.93;100.00
51259;BME280;37327;54.254;18.504;2023-01-29T02:03:49;101460.98;;;-0.92;100.00
51259;BME280;37327;54.254;18.504;2023-01-29T02:07:13;101453.98;;;-0.93;100.00
51259;BME280;37327;54.254;18.504;2023-01-29T02:10:41;101442.42;;;-0.92;100.00
51259;BME280;37327;54.254;18.504;2023-01-29T02:13:49;101427.41;;;-0.91;100.00
51259;BME280;37327;54.254;18.504;2023-01-29T02:17:02;101434.48;;;-0.92;100.00
51259;BME280;37327;54.254;18.504;2023-01-29T02:20:19;101425.59;;;-0.91;100.00
51259;BME280;37327;54.254;18.504;2023-01-29T02:27:02;101413.11;;;-0.89;100.00
51259;BME280;37327;54.254;18.504;2023-01-29T02:36:57;101409.53;;;-0.88;100.00
51259;BME280;37327;54.254;18.504;2023-01-29T02:40:35;101401.47;;;-0.86;100.00
51259;BME280;37327;54.254;18.504;2023-01-29T02:46:52;101399.50;;;-0.83;100.00
51259;BME280;37327;54.254;18.504;2023-01-29T02:53:23;101402.76;;;-0.77;100.00
51259;BME280;37327;54.254;18.504;2023-01-29T02:56:45;101401.80;;;-0.76;100.00
51259;BME280;37327;54.254;18.504;2023-01-29T02:59:58;101400.80;;;-0.74;100.00
51259;BME280;37327;54.254;18.504;2023-01-29T03:06:32;101394.45;;;-0.71;100.00
51259;BME280;37327;54.254;18.504;2023-01-29T03:09:47;101398.83;;;-0.70;100.00
51259;BME280;37327;54.254;18.504;2023-01-29T03:13:07;101408.47;;;-0.69;100.00
51259;BME280;37327;54.254;18.504;2023-01-29T03:19:39;101405.74;;;-0.68;100.00
51259;BME280;37327;54.254;18.504;2023-01-29T03:22:52;101398.71;;;-0.69;100.00
51259;BME280;37327;54.254;18.504;2023-01-29T03:26:03;101403.94;;;-0.67;100.00
51259;BME280;37327;54.254;18.504;2023-01-29T03:29:24;101395.05;;;-0.66;100.00
51259;BME280;37327;54.254;18.504;2023-01-29T03:32:44;101372.96;;;-0.67;100.00
51259;BME280;37327;54.254;18.504;2023-01-29T03:36:00;101357.05;;;-0.67;100.00
51259;BME280;37327;54.254;18.504;2023-01-29T03:39:13;101357.16;;;-0.68;100.00
51259;BME280;37327;54.254;18.504;2023-01-29T03:45:50;101353.55;;;-0.67;100.00
51259;BME280;37327;54.254;18.504;2023-01-29T03:49:04;101354.31;;;-0.65;100.00
51259;BME280;37327;54.254;18.504;2023-01-29T03:52:20;101348.09;;;-0.64;100.00
51259;BME280;37327;54.254;18.504;2023-01-29T03:55:41;101347.20;;;-0.65;100.00
51259;BME280;37327;54.254;18.504;2023-01-29T03:58:55;101341.81;;;-0.63;100.00
51259;BME280;37327;54.254;18.504;2023-01-29T04:02:10;101331.30;;;-0.65;100.00
51259;BME280;37327;54.254;18.504;2023-01-29T04:05:23;101313.69;;;-0.66;100.00
51259;BME280;37327;54.254;18.504;2023-01-29T04:08:34;101306.77;;;-0.68;100.00
51259;BME280;37327;54.254;18.504;2023-01-29T04:11:48;101307.70;;;-0.69;100.00
51259;BME280;37327;54.254;18.504;2023-01-29T04:14:58;101309.43;;;-0.68;100.00
51259;BME280;37327;54.254;18.504;2023-01-29T04:18:07;101310.36;;;-0.69;100.00
51259;BME280;37327;54.254;18.504;2023-01-29T04:21:15;101318.31;;;-0.69;100.00
51259;BME280;37327;54.254;18.504;2023-01-29T04:24:23;101329.77;;;-0.69;100.00
51259;BME280;37327;54.254;18.504;2023-01-29T04:30:59;101306.86;;;-0.70;100.00
51259;BME280;37327;54.254;18.504;2023-01-29T04:44:15;101295.94;;;-0.80;100.00
51259;BME280;37327;54.254;18.504;2023-01-29T04:50:49;101285.33;;;-0.80;100.00
51259;BME280;37327;54.254;18.504;2023-01-29T04:54:08;101281.63;;;-0.77;100.00
51259;BME280;37327;54.254;18.504;2023-01-29T05:00:42;101269.73;;;-0.70;100.00
51259;BME280;37327;54.254;18.504;2023-01-29T05:03:52;101272.19;;;-0.67;100.00
51259;BME280;37327;54.254;18.504;2023-01-29T05:07:05;101257.99;;;-0.66;100.00
51259;BME280;37327;54.254;18.504;2023-01-29T05:10:17;101244.53;;;-0.63;100.00
51259;BME280;37327;54.254;18.504;2023-01-29T05:13:29;101244.37;;;-0.60;100.00
51259;BME280;37327;54.254;18.504;2023-01-29T05:16:41;101248.62;;;-0.57;100.00
51259;BME280;37327;54.254;18.504;2023-01-29T05:19:49;101237.08;;;-0.56;100.00
51259;BME280;37327;54.254;18.504;2023-01-29T05:22:56;101242.09;;;-0.51;100.00
51259;BME280;37327;54.254;18.504;2023-01-29T05:26:04;101234.05;;;-0.50;100.00
51259;BME280;37327;54.254;18.504;2023-01-29T05:29:11;101238.43;;;-0.49;100.00
51259;BME280;37327;54.254;18.504;2023-01-29T05:32:18;101240.12;;;-0.48;100.00
51259;BME280;37327;54.254;18.504;2023-01-29T05:35:26;101240.03;;;-0.46;100.00
51259;BME280;37327;54.254;18.504;2023-01-29T05:38:34;101228.57;;;-0.47;100.00
51259;BME280;37327;54.254;18.504;2023-01-29T05:41:41;101231.02;;;-0.44;100.00
51259;BME280;37327;54.254;18.504;2023-01-29T05:44:47;101226.69;;;-0.45;100.00
51259;BME280;37327;54.254;18.504;2023-01-29T05:47:59;101231.11;;;-0.45;100.00
51259;BME280;37327;54.254;18.504;2023-01-29T05:51:06;101238.14;;;-0.44;100.00
51259;BME280;37327;54.254;18.504;2023-01-29T05:54:13;101222.98;;;-0.42;100.00
51259;BME280;37327;54.254;18.504;2023-01-29T05:57:20;101231.60;;;-0.38;100.00
51259;BME280;37327;54.254;18.504;2023-01-29T06:00:28;101219.11;;;-0.36;100.00
51259;BME280;37327;54.254;18.504;2023-01-29T06:03:34;101222.42;;;-0.33;100.00
51259;BME280;37327;54.254;18.504;2023-01-29T06:06:41;101223.10;;;-0.29;100.00
51259;BME280;37327;54.254;18.504;2023-01-29T06:09:48;101222.80;;;-0.25;100.00
51259;BME280;37327;54.254;18.504;2023-01-29T06:12:55;101225.16;;;-0.20;100.00
51259;BME280;37327;54.254;18.504;2023-01-29T06:16:08;101217.87;;;-0.16;100.00
51259;BME280;37327;54.254;18.504;2023-01-29T06:19:15;101217.56;;;-0.12;100.00
51259;BME280;37327;54.254;18.504;2023-01-29T06:22:23;101220.80;;;-0.07;100.00
51259;BME280;37327;54.254;18.504;2023-01-29T06:25:30;101219.57;;;-0.01;100.00
51259;BME280;37327;54.254;18.504;2023-01-29T06:28:37;101220.24;;;0.03;100.00
51259;BME280;37327;54.254;18.504;2023-01-29T06:31:45;101222.67;;;0.06;100.00
51259;BME280;37327;54.254;18.504;2023-01-29T06:34:52;101233.97;;;0.09;100.00
51259;BME280;37327;54.254;18.504;2023-01-29T06:37:59;101232.94;;;0.12;100.00
51259;BME280;37327;54.254;18.504;2023-01-29T06:41:12;101219.45;;;0.15;100.00
51259;BME280;37327;54.254;18.504;2023-01-29T06:44:19;101230.83;;;0.17;100.00
51259;BME280;37327;54.254;18.504;2023-01-29T06:47:27;101220.97;;;0.19;100.00
51259;BME280;37327;54.254;18.504;2023-01-29T06:50:33;101220.77;;;0.22;100.00
51259;BME280;37327;54.254;18.504;2023-01-29T06:53:40;101218.04;;;0.24;100.00
51259;BME280;37327;54.254;18.504;2023-01-29T06:56:47;101227.60;;;0.26;100.00
51259;BME280;37327;54.254;18.504;2023-01-29T06:59:54;101218.48;;;0.30;100.00
51259;BME280;37327;54.254;18.504;2023-01-29T07:03:01;101209.59;;;0.31;100.00
51259;BME280;37327;54.254;18.504;2023-01-29T07:06:08;101208.42;;;0.35;100.00
51259;BME280;37327;54.254;18.504;2023-01-29T07:09:15;101201.21;;;0.37;100.00
51259;BME280;37327;54.254;18.504;2023-01-29T07:12:22;101198.34;;;0.41;100.00
51259;BME280;37327;54.254;18.504;2023-01-29T07:15:29;101207.05;;;0.43;100.00
51259;BME280;37327;54.254;18.504;2023-01-29T07:18:36;101196.25;;;0.46;100.00
51259;BME280;37327;54.254;18.504;2023-01-29T07:21:43;101199.65;;;0.48;100.00
51259;BME280;37327;54.254;18.504;2023-01-29T07:24:49;101206.47;;;0.52;100.00
51259;BME280;37327;54.254;18.504;2023-01-29T07:27:59;101204.56;;;0.54;100.00
51259;BME280;37327;54.254;18.504;2023-01-29T07:31:08;101192.03;;;0.56;100.00
51259;BME280;37327;54.254;18.504;2023-01-29T07:34:17;101183.13;;;0.57;100.00
51259;BME280;37327;54.254;18.504;2023-01-29T07:37:24;101182.91;;;0.60;100.00
51259;BME280;37327;54.254;18.504;2023-01-29T07:40:31;101181.73;;;0.64;100.00
51259;BME280;37327;54.254;18.504;2023-01-29T07:43:38;101164.85;;;0.65;100.00
51259;BME280;37327;54.254;18.504;2023-01-29T07:46:45;101165.52;;;0.69;100.00
51259;BME280;37327;54.254;18.504;2023-01-29T07:49:51;101169.76;;;0.71;100.00
51259;BME280;37327;54.254;18.504;2023-01-29T07:52:58;101172.23;;;0.74;100.00
51259;BME280;37327;54.254;18.504;2023-01-29T07:56:05;101170.19;;;0.78;100.00
51259;BME280;37327;54.254;18.504;2023-01-29T07:59:12;101163.61;;;0.84;100.00
51259;BME280;37327;54.254;18.504;2023-01-29T08:02:19;101164.27;;;0.87;100.00
51259;BME280;37327;54.254;18.504;2023-01-29T08:05:26;101164.08;;;0.90;100.00
51259;BME280;37327;54.254;18.504;2023-01-29T08:08:33;101155.77;;;0.95;100.00
51259;BME280;37327;54.254;18.504;2023-01-29T08:11:40;101157.27;;;0.99;100.00
51259;BME280;37327;54.254;18.504;2023-01-29T08:14:47;101147.28;;;1.03;100.00
51259;BME280;37327;54.254;18.504;2023-01-29T08:17:55;101144.20;;;1.09;100.00
51259;BME280;37327;54.254;18.504;2023-01-29T08:21:01;101151.00;;;1.13;100.00
51259;BME280;37327;54.254;18.504;2023-01-29T08:24:08;101147.30;;;1.15;100.00
51259;BME280;37327;54.254;18.504;2023-01-29T08:27:15;101148.05;;;1.17;100.00
51259;BME280;37327;54.254;18.504;2023-01-29T08:30:27;101160.48;;;1.17;100.00
51259;BME280;37327;54.254;18.504;2023-01-29T08:33:34;101158.69;;;1.17;100.00
51259;BME280;37327;54.254;18.504;2023-01-29T08:36:41;101147.92;;;1.19;100.00
51259;BME280;37327;54.254;18.504;2023-01-29T08:39:48;101154.76;;;1.23;100.00
51259;BME280;37327;54.254;18.504;2023-01-29T08:42:59;101153.70;;;1.26;100.00
51259;BME280;37327;54.254;18.504;2023-01-29T08:46:07;101150.50;;;1.33;100.00
51259;BME280;37327;54.254;18.504;2023-01-29T08:49:13;101164.22;;;1.40;100.00
51259;BME280;37327;54.254;18.504;2023-01-29T08:52:20;101162.84;;;1.47;100.00
51259;BME280;37327;54.254;18.504;2023-01-29T08:55:28;101153.68;;;1.51;100.00
51259;BME280;37327;54.254;18.504;2023-01-29T08:58:36;101152.40;;;1.57;100.00
51259;BME280;37327;54.254;18.504;2023-01-29T09:01:43;101140.68;;;1.60;100.00
51259;BME280;37327;54.254;18.504;2023-01-29T09:04:50;101141.66;;;1.58;100.00
51259;BME280;37327;54.254;18.504;2023-01-29T09:08:00;101144.19;;;1.60;100.00
51259;BME280;37327;54.254;18.504;2023-01-29T09:11:06;101139.00;;;1.58;100.00
51259;BME280;37327;54.254;18.504;2023-01-29T09:14:15;101126.53;;;1.59;100.00
51259;BME280;37327;54.254;18.504;2023-01-29T09:17:22;101123.77;;;1.61;100.00
51259;BME280;37327;54.254;18.504;2023-01-29T09:20:29;101131.32;;;1.67;100.00
51259;BME280;37327;54.254;18.504;2023-01-29T09:23:36;101122.05;;;1.72;100.00
51259;BME280;37327;54.254;18.504;2023-01-29T09:26:42;101117.45;;;1.74;100.00
51259;BME280;37327;54.254;18.504;2023-01-29T09:29:49;101132.16;;;1.80;100.00
51259;BME280;37327;54.254;18.504;2023-01-29T09:32:59;101137.23;;;1.83;100.00
51259;BME280;37327;54.254;18.504;2023-01-29T09:36:07;101137.02;;;1.86;100.00
51259;BME280;37327;54.254;18.504;2023-01-29T09:39:14;101132.65;;;1.85;100.00
51259;BME280;37327;54.254;18.504;2023-01-29T09:45:54;101123.18;;;1.81;100.00
51259;BME280;37327;54.254;18.504;2023-01-29T09:49:03;101121.49;;;1.80;100.00
51259;BME280;37327;54.254;18.504;2023-01-29T09:55:38;101109.14;;;1.79;100.00
51259;BME280;37327;54.254;18.504;2023-01-29T09:58:47;101115.20;;;1.81;100.00
51259;BME280;37327;54.254;18.504;2023-01-29T10:02:19;101108.05;;;1.82;100.00
51259;BME280;37327;54.254;18.504;2023-01-29T10:15:27;101090.00;;;1.74;100.00
51259;BME280;37327;54.254;18.504;2023-01-29T10:18:44;101091.04;;;1.71;100.00
51259;BME280;37327;54.254;18.504;2023-01-29T10:25:17;101079.90;;;1.66;100.00
51259;BME280;37327;54.254;18.504;2023-01-29T10:28:47;101078.08;;;1.67;100.00
51259;BME280;37327;54.254;18.504;2023-01-29T10:31:45;101075.52;;;1.65;100.00
51259;BME280;37327;54.254;18.504;2023-01-29T10:35:03;101054.13;;;1.67;100.00
51259;BME280;37327;54.254;18.504;2023-01-29T10:41:43;101056.44;;;1.71;100.00
51259;BME280;37327;54.254;18.504;2023-01-29T10:54:59;101053.50;;;1.87;100.00
51259;BME280;37327;54.254;18.504;2023-01-29T11:01:26;101027.75;;;1.88;100.00
51259;BME280;37327;54.254;18.504;2023-01-29T11:04:34;101020.16;;;1.94;100.00
51259;BME280;37327;54.254;18.504;2023-01-29T11:07:42;101017.65;;;2.04;100.00
51259;BME280;37327;54.254;18.504;2023-01-29T11:14:15;101002.46;;;2.17;100.00
51259;BME280;37327;54.254;18.504;2023-01-29T11:17:25;101004.76;;;2.22;100.00
51259;BME280;37327;54.254;18.504;2023-01-29T11:20:32;100994.62;;;2.27;100.00
51259;BME280;37327;54.254;18.504;2023-01-29T11:23:40;100984.70;;;2.29;100.00
51259;BME280;37327;54.254;18.504;2023-01-29T11:26:49;100977.66;;;2.28;100.00
51259;BME280;37327;54.254;18.504;2023-01-29T11:29:57;100983.23;;;2.25;100.00
51259;BME280;37327;54.254;18.504;2023-01-29T11:39:45;100975.93;;;2.16;100.00
51259;BME280;37327;54.254;18.504;2023-01-29T11:42:53;100973.15;;;2.17;100.00
51259;BME280;37327;54.254;18.504;2023-01-29T11:46:10;100969.41;;;2.20;100.00
51259;BME280;37327;54.254;18.504;2023-01-29T11:52:42;100967.20;;;2.14;100.00
51259;BME280;37327;54.254;18.504;2023-01-29T11:55:50;100975.20;;;2.14;100.00
51259;BME280;37327;54.254;18.504;2023-01-29T11:58:58;100969.35;;;2.09;100.00
51259;BME280;37327;54.254;18.504;2023-01-29T12:05:29;100978.16;;;1.98;100.00
51259;BME280;37327;54.254;18.504;2023-01-29T12:08:37;100976.45;;;1.97;100.00
51259;BME280;37327;54.254;18.504;2023-01-29T12:11:44;100965.06;;;1.95;100.00
51259;BME280;37327;54.254;18.504;2023-01-29T12:21:42;100952.16;;;2.02;100.00
51259;BME280;37327;54.254;18.504;2023-01-29T12:24:54;100948.87;;;1.98;100.00
51259;BME280;37327;54.254;18.504;2023-01-29T12:48:11;100895.47;;;1.88;100.00
51259;BME280;37327;54.254;18.504;2023-01-29T12:51:32;100895.47;;;1.88;100.00
51259;BME280;37327;54.254;18.504;2023-01-29T12:54:44;100893.64;;;1.89;100.00
51259;BME280;37327;54.254;18.504;2023-01-29T12:57:58;100890.02;;;1.90;100.00
51259;BME280;37327;54.254;18.504;2023-01-29T13:01:13;100890.02;;;1.90;100.00
51259;BME280;37327;54.254;18.504;2023-01-29T13:07:46;100874.16;;;1.88;100.00
51259;BME280;37327;54.254;18.504;2023-01-29T13:10:57;100865.45;;;1.86;100.00
51259;BME280;37327;54.254;18.504;2023-01-29T13:14:13;100864.71;;;1.84;100.00
51259;BME280;37327;54.254;18.504;2023-01-29T13:20:42;100879.95;;;1.82;100.00
51259;BME280;37327;54.254;18.504;2023-01-29T13:23:59;100879.23;;;1.80;100.00
51259;BME280;37327;54.254;18.504;2023-01-29T13:27:30;100878.60;;;1.76;100.00
51259;BME280;37327;54.254;18.504;2023-01-29T13:30:31;100867.44;;;1.71;100.00
51259;BME280;37327;54.254;18.504;2023-01-29T13:33:41;100876.30;;;1.72;100.00
51259;BME280;37327;54.254;18.504;2023-01-29T13:36:53;100873.39;;;1.75;100.00
51259;BME280;37327;54.254;18.504;2023-01-29T13:40:16;100866.13;;;1.77;100.00
51259;BME280;37327;54.254;18.504;2023-01-29T13:43:23;100864.19;;;1.79;100.00
51259;BME280;37327;54.254;18.504;2023-01-29T13:46:31;100856.95;;;1.81;100.00
51259;BME280;37327;54.254;18.504;2023-01-29T13:53:36;100848.12;;;1.81;100.00
51259;BME280;37327;54.254;18.504;2023-01-29T13:59:58;100851.15;;;1.76;100.00
51259;BME280;37327;54.254;18.504;2023-01-29T14:03:31;100854.02;;;1.73;100.00
51259;BME280;37327;54.254;18.504;2023-01-29T14:06:35;100857.04;;;1.68;100.00
51259;BME280;37327;54.254;18.504;2023-01-29T14:16:27;100864.51;;;1.63;100.00
51259;BME280;37327;54.254;18.504;2023-01-29T14:19:36;100854.23;;;1.58;100.00
51259;BME280;37327;54.254;18.504;2023-01-29T14:22:42;100854.45;;;1.55;100.00
51259;BME280;37327;54.254;18.504;2023-01-29T14:25:50;100847.66;;;1.51;100.00
51259;BME280;37327;54.254;18.504;2023-01-29T14:29:06;100857.55;;;1.49;100.00
51259;BME280;37327;54.254;18.504;2023-01-29T14:32:22;100848.73;;;1.49;100.00
51259;BME280;37327;54.254;18.504;2023-01-29T14:35:32;100838.21;;;1.47;100.00
51259;BME280;37327;54.254;18.504;2023-01-29T14:38:47;100821.40;;;1.47;100.00
51259;BME280;37327;54.254;18.504;2023-01-29T14:41:56;100828.52;;;1.46;100.00
51259;BME280;37327;54.254;18.504;2023-01-29T14:51:43;100831.18;;;1.46;100.00
51259;BME280;37327;54.254;18.504;2023-01-29T14:54:53;100822.35;;;1.46;100.00
51259;BME280;37327;54.254;18.504;2023-01-29T14:58:03;100822.46;;;1.44;100.00
51259;BME280;37327;54.254;18.504;2023-01-29T15:04:37;100817.14;;;1.44;100.00
51259;BME280;37327;54.254;18.504;2023-01-29T15:07:52;100818.85;;;1.45;100.00
51259;BME280;37327;54.254;18.504;2023-01-29T15:11:11;100817.14;;;1.44;100.00
51259;BME280;37327;54.254;18.504;2023-01-29T15:14:38;100817.28;;;1.43;100.00
51259;BME280;37327;54.254;18.504;2023-01-29T15:18:02;100803.10;;;1.42;100.00
51259;BME280;37327;54.254;18.504;2023-01-29T15:21:16;100795.13;;;1.42;100.00
51259;BME280;37327;54.254;18.504;2023-01-29T15:24:23;100781.09;;;1.40;100.00
51259;BME280;37327;54.254;18.504;2023-01-29T15:27:30;100782.91;;;1.40;100.00
51259;BME280;37327;54.254;18.504;2023-01-29T15:30:38;100776.75;;;1.39;100.00
51259;BME280;37327;54.254;18.504;2023-01-29T15:33:49;100784.73;;;1.39;100.00
51259;BME280;37327;54.254;18.504;2023-01-29T15:36:57;100783.86;;;1.38;100.00
51259;BME280;37327;54.254;18.504;2023-01-29T15:40:13;100781.09;;;1.40;100.00
51259;BME280;37327;54.254;18.504;2023-01-29T15:43:24;100774.09;;;1.39;100.00
51259;BME280;37327;54.254;18.504;2023-01-29T15:46:34;100767.05;;;1.38;100.00
51259;BME280;37327;54.254;18.504;2023-01-29T15:49:44;100763.56;;;1.37;100.00
51259;BME280;37327;54.254;18.504;2023-01-29T15:52:52;100768.03;;;1.37;100.00
51259;BME280;37327;54.254;18.504;2023-01-29T15:56:01;100768.98;;;1.36;100.00
51259;BME280;37327;54.254;18.504;2023-01-29T15:59:25;100755.68;;;1.36;100.00
51259;BME280;37327;54.254;18.504;2023-01-29T16:02:40;100751.20;;;1.36;100.00
51259;BME280;37327;54.254;18.504;2023-01-29T16:05:51;100758.34;;;1.36;100.00
51259;BME280;37327;54.254;18.504;2023-01-29T16:08:59;100755.68;;;1.36;100.00
51259;BME280;37327;54.254;18.504;2023-01-29T16:12:08;100761.11;;;1.34;100.00
51259;BME280;37327;54.254;18.504;2023-01-29T16:18:39;100751.05;;;1.27;100.00
51259;BME280;37327;54.254;18.504;2023-01-29T16:21:57;100749.48;;;1.24;100.00
51259;BME280;37327;54.254;18.504;2023-01-29T16:25:10;100747.91;;;1.22;100.00
51259;BME280;37327;54.254;18.504;2023-01-29T16:28:18;100751.52;;;1.21;100.00
51259;BME280;37327;54.254;18.504;2023-01-29T16:31:30;100742.70;;;1.20;100.00
51259;BME280;37327;54.254;18.504;2023-01-29T16:34:40;100732.16;;;1.18;100.00
51259;BME280;37327;54.254;18.504;2023-01-29T16:37:49;100734.94;;;1.17;100.00
51259;BME280;37327;54.254;18.504;2023-01-29T16:47:38;100726.96;;;1.17;100.00
51259;BME280;37327;54.254;18.504;2023-01-29T16:50:46;100732.16;;;1.18;100.00
51259;BME280;37327;54.254;18.504;2023-01-29T16:53:58;100721.53;;;1.18;100.00
51259;BME280;37327;54.254;18.504;2023-01-29T16:57:10;100719.85;;;1.17;100.00
51259;BME280;37327;54.254;18.504;2023-01-29T17:00:26;100713.66;;;1.17;100.00
51259;BME280;37327;54.254;18.504;2023-01-29T17:03:34;100714.64;;;1.16;100.00
51259;BME280;37327;54.254;18.504;2023-01-29T17:06:45;100704.95;;;1.15;100.00
51259;BME280;37327;54.254;18.504;2023-01-29T17:09:57;100710.27;;;1.15;100.00
51259;BME280;37327;54.254;18.504;2023-01-29T17:13:14;100703.16;;;1.15;100.00
51259;BME280;37327;54.254;18.504;2023-01-29T17:16:31;100694.31;;;1.15;100.00
51259;BME280;37327;54.254;18.504;2023-01-29T17:19:38;100695.41;;;1.12;100.00
51259;BME280;37327;54.254;18.504;2023-01-29T17:22:45;100690.20;;;1.11;100.00
51259;BME280;37327;54.254;18.504;2023-01-29T17:25:52;100684.98;;;1.09;100.00
51259;BME280;37327;54.254;18.504;2023-01-29T17:29:00;100692.23;;;1.07;100.00
51259;BME280;37327;54.254;18.504;2023-01-29T17:32:08;100685.13;;;1.08;100.00
51259;BME280;37327;54.254;18.504;2023-01-29T17:35:15;100687.06;;;1.06;100.00
51259;BME280;37327;54.254;18.504;2023-01-29T17:38:23;100665.79;;;1.06;100.00
51259;BME280;37327;54.254;18.504;2023-01-29T17:41:31;100662.50;;;1.02;100.00
51259;BME280;37327;54.254;18.504;2023-01-29T17:44:41;100651.03;;;1.02;100.00
51259;BME280;37327;54.254;18.504;2023-01-29T17:47:48;100646.55;;;1.02;100.00
51259;BME280;37327;54.254;18.504;2023-01-29T17:50:58;100645.71;;;1.02;100.00
51259;BME280;37327;54.254;18.504;2023-01-29T17:54:06;100635.92;;;1.02;100.00
51259;BME280;37327;54.254;18.504;2023-01-29T17:57:16;100623.47;;;1.03;100.00
51259;BME280;37327;54.254;18.504;2023-01-29T18:00:23;100619.96;;;1.02;100.00
51259;BME280;37327;54.254;18.504;2023-01-29T18:03:30;100619.96;;;1.02;100.00
51259;BME280;37327;54.254;18.504;2023-01-29T18:06:39;100604.02;;;1.02;100.00
51259;BME280;37327;54.254;18.504;2023-01-29T18:09:46;100598.44;;;1.05;100.00
51259;BME280;37327;54.254;18.504;2023-01-29T18:12:53;100591.45;;;1.04;100.00
51259;BME280;37327;54.254;18.504;2023-01-29T18:16:00;100595.78;;;1.05;100.00
51259;BME280;37327;54.254;18.504;2023-01-29T18:22:28;100581.77;;;1.03;100.00
51259;BME280;37327;54.254;18.504;2023-01-29T18:25:35;100584.20;;;1.06;100.00
51259;BME280;37327;54.254;18.504;2023-01-29T18:28:42;100577.78;;;1.09;100.00
51259;BME280;37327;54.254;18.504;2023-01-29T18:31:50;100587.36;;;1.11;100.00
51259;BME280;37327;54.254;18.504;2023-01-29T18:34:57;100577.45;;;1.13;100.00
51259;BME280;37327;54.254;18.504;2023-01-29T18:38:03;100571.14;;;1.14;100.00
51259;BME280;37327;54.254;18.504;2023-01-29T18:41:11;100563.17;;;1.14;100.00
51259;BME280;37327;54.254;18.504;2023-01-29T18:44:18;100553.52;;;1.13;100.00
51259;BME280;37327;54.254;18.504;2023-01-29T18:47:25;100553.52;;;1.13;100.00
51259;BME280;37327;54.254;18.504;2023-01-29T18:50:32;100545.53;;;1.13;100.00
51259;BME280;37327;54.254;18.504;2023-01-29T18:53:41;100535.84;;;1.12;100.00
51259;BME280;37327;54.254;18.504;2023-01-29T18:56:49;100536.69;;;1.13;100.00
51259;BME280;37327;54.254;18.504;2023-01-29T18:59:56;100524.26;;;1.13;100.00
51259;BME280;37327;54.254;18.504;2023-01-29T19:03:03;100511.81;;;1.14;100.00
51259;BME280;37327;54.254;18.504;2023-01-29T19:06:10;100513.48;;;1.15;100.00
51259;BME280;37327;54.254;18.504;2023-01-29T19:09:18;100507.33;;;1.14;100.00
51259;BME280;37327;54.254;18.504;2023-01-29T19:12:26;100503.72;;;1.15;100.00